Search for airport 
image banner adimage banner adimage banner ad
image banner ad

29PN - St Vincent Health Center

Located in Erie, United States

ICAO - 29PN, IATA -

Data provided by Airmate  

General information

Coordinates: N42°6'43" W80°4'51"
Elevation is 731 feet MSL.
Magnetic variation is -08° East
View others Airports in Pennsylvania

Operational data

Special qualification required
Current time UTC:
Current local time:
Weather at : KERI - Erie Intl/Tom Ridge Field ( 8 km )
METAR: KERI 091351Z 18007KT 10SM BKN100 OVC120 09/02 A3001 RMK AO2 SLP166 T00890017
TAF: KERI 091126Z 0912/1012 17005KT P6SM BKN200 FM091600 14006KT 6SM -RA OVC035 FM091800 10008KT 5SM -RA OVC025 FM092100 05014G22KT 2SM RA OVC008 FM100300 02012G20KT P6SM OVC008 FM100700 35007KT P6SM BKN025
View NOTAMs / SUP AIP / TFR affecting this airport [VIEW]
Communications frequencies: [VIEW]

Runways:

Airport contact information

Address: Erie United States

Satellite view of 29PN